Milan, Minnesota
Current Conditions -  °F | °C
As of 10:14 AM on Friday 24 Oct 2014 (Local Time) from KAQP Reporting Station
Clear Clear  
Wind Chill: 52°   Ceiling: Unl
Heat Index: 52°   Visibility: 10mi
Dew Point: 46°   Wind: 3mph
Humidity: 82%   Direction: 270°W
Pressure: 29.85"   Gusts: NA
Location:  45.11°N, 95.91°W
Report Text: KAQP 241514Z AUTO 27003KT 10SM CLR 11/08 A2985 RMK AO2
Loading
Personal Weather Stations






























Interactive Weather Map
Tropical Storm Tracking
New forecast layout! Learn more

10-Day Weather Forecast

Advertisements
Track Severe Weather on mobile